Terminal Aerodrome Forecast
Issued by NWS Pittsburgh, PA

Home | Current Version | Previous Version | Text Only | Print | Product List | Glossary On
Versions: 1 2 3 4 5 6 7 8 9 10 11 12 13 14 15 16 17 18 19 20 21 22 23
000
FTUS41 KPBZ 270800 AAA
TAFPIT
TAF AMD
KPIT 270858Z 2709/2812 18004KT P6SM BKN200
     FM271030 20005KT P6SM OVC040
     FM271500 19008KT P6SM BKN150
     FM280400 24005KT 4SM -RA OVC025=

USA.gov is the U.S. government's official web portal to all federal, state and local government web resources and services.